createdAt,value
2022-11-23T00:01:31.250Z,1.90
2022-11-23T00:03:59.249Z,1.53
2022-11-23T00:06:26.674Z,2.00
2022-11-23T00:08:54.584Z,2.03
2022-11-23T00:11:22.619Z,1.97
2022-11-23T00:13:50.309Z,1.90
2022-11-23T00:16:19.316Z,1.43
2022-11-23T00:18:47.018Z,2.13
2022-11-23T00:21:16.470Z,1.73
2022-11-23T00:23:44.216Z,2.17
2022-11-23T00:26:11.839Z,2.13
2022-11-23T00:28:40.493Z,2.43
2022-11-23T00:31:10.282Z,1.90
2022-11-23T00:33:37.875Z,1.80
2022-11-23T00:36:07.120Z,2.13
2022-11-23T00:38:34.519Z,2.00
2022-11-23T00:41:02.676Z,1.87
2022-11-23T00:43:30.570Z,1.90
2022-11-23T00:46:10.497Z,2.10
2022-11-23T00:48:38.127Z,1.93
2022-11-23T00:51:06.856Z,1.40
2022-11-23T00:53:34.354Z,1.47
2022-11-23T00:56:01.871Z,2.10
2022-11-23T00:58:29.291Z,2.10
2022-11-23T01:01:04.489Z,1.90
2022-11-23T01:03:34.883Z,1.80
2022-11-23T01:06:03.482Z,1.83
2022-11-23T01:08:31.219Z,2.20
2022-11-23T01:11:00.749Z,1.73
2022-11-23T01:13:28.211Z,2.17
2022-11-23T01:15:55.570Z,2.00
2022-11-23T01:18:23.556Z,2.13
2022-11-23T01:20:50.873Z,2.23
2022-11-23T01:23:18.728Z,2.30
2022-11-23T01:25:47.310Z,2.00
2022-11-23T01:28:14.747Z,1.73
2022-11-23T01:30:42.115Z,2.10
2022-11-23T01:33:09.519Z,2.17
2022-11-23T01:35:37.096Z,2.43
2022-11-23T01:38:04.402Z,2.07
2022-11-23T01:40:31.769Z,1.80
2022-11-23T01:43:00.348Z,2.00
2022-11-23T01:45:33.801Z,1.80
2022-11-23T01:48:01.866Z,2.90
2022-11-23T01:50:29.245Z,1.80
2022-11-23T01:52:57.603Z,1.80
2022-11-23T01:55:27.352Z,1.80
2022-11-23T01:57:55.710Z,2.00
2022-11-23T02:00:23.681Z,2.27
2022-11-23T02:02:54.221Z,2.03
2022-11-23T02:05:24.003Z,2.20
2022-11-23T02:07:52.055Z,1.93
2022-11-23T02:10:20.673Z,1.83
2022-11-23T02:12:48.162Z,1.97
2022-11-23T02:15:15.547Z,1.70
2022-11-23T02:17:43.895Z,2.20
2022-11-23T02:20:16.131Z,1.87
2022-11-23T02:22:52.696Z,1.63
2022-11-23T02:25:31.396Z,1.70
2022-11-23T02:27:58.720Z,1.50
2022-11-23T02:30:27.882Z,1.87
2022-11-23T02:32:55.547Z,2.17
2022-11-23T02:35:24.911Z,1.87
2022-11-23T02:37:52.963Z,1.87
2022-11-23T02:40:26.084Z,2.10
2022-11-23T02:42:53.509Z,1.63
2022-11-23T02:45:28.283Z,2.07
2022-11-23T02:47:55.706Z,2.20
2022-11-23T02:50:23.022Z,2.00
2022-11-23T02:52:50.401Z,1.70
2022-11-23T02:55:17.708Z,2.10
2022-11-23T02:57:45.036Z,1.50
2022-11-23T03:00:12.767Z,1.60
2022-11-23T03:02:40.047Z,1.97
2022-11-23T03:05:07.727Z,2.00
2022-11-23T03:07:35.350Z,2.10
2022-11-23T03:10:03.772Z,1.70
2022-11-23T03:12:31.398Z,1.80
2022-11-23T03:14:59.695Z,1.70
2022-11-23T03:17:28.091Z,2.07
2022-11-23T03:19:55.444Z,1.80
2022-11-23T03:22:24.235Z,1.70
2022-11-23T03:24:53.359Z,1.73
2022-11-23T03:27:20.901Z,1.70
2022-11-23T03:29:50.752Z,1.47
2022-11-23T03:32:21.072Z,1.73
2022-11-23T03:34:51.965Z,1.83
2022-11-23T03:37:21.082Z,1.50
2022-11-23T03:39:48.702Z,1.47
2022-11-23T03:42:48.401Z,1.60
2022-11-23T03:45:16.505Z,1.97
2022-11-23T03:47:44.908Z,1.83
2022-11-23T03:50:12.425Z,1.60
2022-11-23T03:52:39.745Z,1.87
2022-11-23T03:55:07.294Z,1.83
2022-11-23T03:57:37.855Z,1.40
2022-11-23T04:00:06.609Z,1.70
2022-11-23T04:02:40.833Z,2.00
2022-11-23T04:05:23.166Z,2.10
2022-11-23T04:08:10.136Z,2.10
2022-11-23T04:10:37.966Z,2.07
2022-11-23T04:13:15.506Z,1.87
2022-11-23T04:15:42.977Z,1.93
2022-11-23T04:18:10.865Z,2.00
2022-11-23T04:20:39.732Z,2.00
2022-11-23T04:23:11.763Z,1.93
2022-11-23T04:25:40.702Z,1.80
2022-11-23T04:28:08.888Z,2.00
2022-11-23T04:30:36.336Z,2.00
2022-11-23T04:33:03.967Z,2.17
2022-11-23T04:35:31.692Z,1.83
2022-11-23T04:37:59.290Z,1.70
2022-11-23T04:40:31.586Z,2.03
2022-11-23T04:43:03.263Z,1.90
2022-11-23T04:45:34.556Z,2.00
2022-11-23T04:48:06.696Z,2.07
2022-11-23T04:50:35.612Z,1.73
2022-11-23T04:53:04.462Z,1.80
2022-11-23T04:55:39.348Z,1.83
2022-11-23T04:58:06.689Z,1.73
2022-11-23T05:00:35.178Z,2.00
2022-11-23T05:03:04.728Z,2.10
2022-11-23T05:05:34.484Z,1.50
2022-11-23T05:08:03.131Z,1.40
2022-11-23T05:10:49.260Z,1.40
2022-11-23T05:13:16.704Z,1.93
2022-11-23T05:15:47.304Z,1.90
2022-11-23T05:21:03.587Z,1.57
2022-11-23T05:23:31.171Z,1.90
2022-11-23T05:25:59.815Z,2.10
2022-11-23T05:28:42.547Z,2.00
2022-11-23T05:31:14.071Z,1.40
2022-11-23T05:33:44.101Z,1.77
2022-11-23T05:36:13.975Z,1.40
2022-11-23T05:38:42.767Z,1.63
2022-11-23T05:41:15.785Z,1.97
2022-11-23T05:43:44.687Z,1.90
2022-11-23T05:46:17.520Z,1.50
2022-11-23T05:48:45.346Z,1.70
2022-11-23T05:51:13.765Z,1.70
2022-11-23T05:53:44.704Z,1.50
2022-11-23T05:56:24.796Z,1.70
2022-11-23T05:59:02.422Z,1.80
2022-11-23T06:01:29.856Z,1.87
2022-11-23T06:04:02.267Z,1.70
2022-11-23T06:06:34.699Z,1.60
2022-11-23T06:09:06.195Z,1.63
2022-11-23T06:11:35.722Z,1.60
2022-11-23T06:14:13.922Z,1.40
2022-11-23T06:16:42.788Z,1.97
2022-11-23T06:19:20.149Z,1.30
2022-11-23T06:21:50.419Z,1.60
2022-11-23T06:24:19.692Z,1.40
2022-11-23T06:26:55.340Z,1.37
2022-11-23T06:29:23.072Z,1.77
2022-11-23T06:31:50.396Z,1.40
2022-11-23T06:34:17.928Z,1.50
2022-11-23T06:36:46.138Z,1.83
2022-11-23T06:39:13.738Z,1.50
2022-11-23T06:41:41.193Z,1.67
2022-11-23T06:44:08.643Z,1.90
2022-11-23T06:46:40.749Z,1.77
2022-11-23T06:49:08.321Z,1.77
2022-11-23T06:51:35.856Z,1.77
2022-11-23T06:54:03.171Z,1.77
2022-11-23T06:56:32.166Z,1.60
2022-11-23T06:58:59.630Z,1.80
2022-11-23T07:01:28.171Z,2.03
2022-11-23T07:04:03.285Z,2.13
2022-11-23T07:06:35.123Z,1.67
2022-11-23T07:09:08.527Z,1.80
2022-11-23T07:11:46.206Z,1.90
2022-11-23T07:14:13.661Z,2.10
2022-11-23T07:16:44.035Z,1.87
2022-11-23T07:19:11.638Z,2.17
2022-11-23T07:21:39.003Z,2.30
2022-11-23T07:24:06.446Z,1.90
2022-11-23T07:26:33.802Z,1.80
2022-11-23T07:29:01.519Z,2.07
2022-11-23T07:31:28.854Z,1.70
2022-11-23T07:33:56.313Z,1.50
2022-11-23T07:36:23.717Z,2.10
2022-11-23T07:38:51.099Z,1.33
2022-11-23T07:41:20.604Z,1.60
2022-11-23T07:43:58.761Z,1.63
2022-11-23T07:46:26.061Z,1.70
2022-11-23T07:48:54.611Z,1.30
2022-11-23T07:51:21.894Z,1.50
2022-11-23T07:53:49.239Z,1.33
2022-11-23T07:56:16.697Z,1.50
2022-11-23T07:58:43.999Z,1.30
2022-11-23T08:01:15.125Z,1.20
2022-11-23T08:03:42.652Z,1.70
2022-11-23T08:06:10.606Z,1.43
2022-11-23T08:08:38.644Z,1.70
2022-11-23T08:11:06.641Z,1.40
2022-11-23T08:13:37.326Z,1.27
2022-11-23T08:16:04.839Z,1.40
2022-11-23T08:18:32.362Z,1.30
2022-11-23T08:21:00.822Z,1.60
2022-11-23T08:23:28.428Z,1.30
2022-11-23T08:25:55.933Z,1.40
2022-11-23T08:28:23.416Z,1.10
2022-11-23T08:30:51.312Z,1.23
2022-11-23T08:33:18.706Z,1.33
2022-11-23T08:35:46.390Z,1.40
2022-11-23T08:38:13.710Z,1.13
2022-11-23T08:40:41.317Z,1.40
2022-11-23T08:43:08.753Z,1.60
2022-11-23T08:45:36.060Z,1.10
2022-11-23T08:48:04.247Z,1.20
2022-11-23T08:50:32.202Z,1.83
2022-11-23T08:53:00.296Z,1.23
2022-11-23T08:55:28.468Z,1.10
2022-11-23T08:57:57.331Z,1.30
2022-11-23T09:00:25.166Z,1.33
2022-11-23T09:02:52.695Z,1.37
2022-11-23T09:05:20.090Z,1.10
2022-11-23T09:07:47.428Z,1.50
2022-11-23T09:10:18.376Z,1.10
2022-11-23T09:12:47.008Z,1.20
2022-11-23T09:15:14.418Z,1.27
2022-11-23T09:17:41.748Z,1.40
2022-11-23T09:20:10.252Z,1.23
2022-11-23T09:22:37.609Z,1.30
2022-11-23T09:25:05.269Z,1.40
2022-11-23T09:27:32.764Z,1.20
2022-11-23T09:30:00.045Z,1.33
2022-11-23T09:32:27.799Z,1.00
2022-11-23T09:34:55.093Z,1.20
2022-11-23T09:37:22.507Z,1.17
2022-11-23T09:39:49.891Z,1.10
2022-11-23T09:42:31.111Z,0.97
2022-11-23T09:45:17.239Z,1.27
2022-11-23T09:48:14.076Z,1.10
2022-11-23T09:50:53.101Z,1.77
2022-11-23T09:53:22.452Z,1.70
2022-11-23T09:55:52.445Z,1.13
2022-11-23T09:58:21.938Z,1.13
2022-11-23T10:00:51.860Z,1.10
2022-11-23T10:03:19.362Z,1.17
2022-11-23T10:06:16.235Z,1.10
2022-11-23T10:09:03.812Z,1.00
2022-11-23T10:11:46.789Z,0.80
2022-11-23T10:14:33.554Z,0.90
2022-11-23T10:17:05.761Z,1.20
2022-11-23T10:19:39.065Z,1.30
2022-11-23T10:22:18.769Z,1.00
2022-11-23T10:24:51.974Z,0.90
2022-11-23T10:27:24.925Z,0.83
2022-11-23T10:29:52.632Z,1.33
2022-11-23T10:32:46.584Z,1.10
2022-11-23T10:35:18.580Z,1.27
2022-11-23T10:37:45.949Z,1.00
2022-11-23T10:40:13.363Z,1.00
2022-11-23T10:42:45.828Z,1.17
2022-11-23T10:45:24.163Z,0.80
2022-11-23T10:47:52.483Z,1.00
2022-11-23T10:50:21.843Z,0.93
2022-11-23T10:52:56.964Z,1.10
2022-11-23T10:55:29.098Z,1.57
2022-11-23T10:57:56.968Z,0.97
2022-11-23T11:00:30.298Z,1.40
2022-11-23T11:02:59.812Z,1.13
2022-11-23T11:06:07.113Z,1.10
2022-11-23T11:08:20.763Z,1.10
2022-11-23T11:10:58.674Z,1.07
2022-11-23T11:13:25.929Z,1.00
2022-11-23T11:15:54.506Z,0.83
2022-11-23T11:18:22.421Z,1.10
2022-11-23T11:20:56.795Z,1.10
2022-11-23T11:23:24.615Z,1.27
2022-11-23T11:26:02.709Z,1.10
2022-11-23T11:28:42.585Z,1.30
2022-11-23T11:31:13.034Z,1.00
2022-11-23T11:33:43.378Z,1.10
2022-11-23T11:36:12.544Z,1.60
2022-11-23T11:38:40.689Z,1.20
2022-11-23T11:41:09.430Z,1.53
2022-11-23T11:43:43.822Z,1.03
2022-11-23T11:49:04.925Z,1.30
2022-11-23T11:51:38.933Z,0.97
2022-11-23T11:54:32.889Z,1.40
2022-11-23T11:57:20.962Z,1.03
2022-11-23T11:59:50.047Z,1.10
2022-11-23T12:02:31.849Z,1.00
2022-11-23T12:05:17.090Z,1.30
2022-11-23T12:08:01.922Z,1.03
2022-11-23T12:10:33.491Z,1.10
2022-11-23T12:13:00.953Z,1.23
2022-11-23T12:15:49.558Z,1.50
2022-11-23T12:18:28.595Z,1.20
2022-11-23T12:21:07.006Z,1.20
2022-11-23T12:23:35.050Z,1.40
2022-11-23T12:26:17.745Z,1.30
2022-11-23T12:28:52.513Z,1.17
2022-11-23T12:31:32.169Z,1.10
2022-11-23T12:33:59.573Z,1.10
2022-11-23T12:36:27.010Z,1.20
2022-11-23T12:39:00.639Z,1.50
2022-11-23T12:41:27.996Z,1.10
2022-11-23T12:44:15.548Z,1.10
2022-11-23T12:46:51.743Z,1.07
2022-11-23T12:49:19.048Z,1.13
2022-11-23T12:51:53.054Z,1.10
2022-11-23T12:54:32.355Z,1.43
2022-11-23T12:57:18.773Z,1.20
2022-11-23T12:59:57.973Z,1.00
2022-11-23T13:02:36.850Z,1.00
2022-11-23T13:05:19.768Z,1.30
2022-11-23T13:08:05.875Z,1.20
2022-11-23T13:10:39.823Z,1.00
2022-11-23T13:13:19.918Z,1.67
2022-11-23T13:15:50.585Z,1.40
2022-11-23T13:18:36.986Z,1.20
2022-11-23T13:21:23.348Z,1.03
2022-11-23T13:23:50.889Z,0.90
2022-11-23T13:26:19.577Z,1.10
2022-11-23T13:28:48.517Z,0.90
2022-11-23T13:31:16.281Z,0.90
2022-11-23T13:33:47.678Z,1.00
2022-11-23T13:37:10.436Z,1.10
2022-11-23T13:39:41.552Z,0.77
2022-11-23T13:42:10.469Z,1.00
2022-11-23T13:44:38.146Z,1.00
2022-11-23T13:47:05.602Z,1.10
2022-11-23T13:49:43.985Z,1.00
2022-11-23T13:52:23.565Z,0.80
2022-11-23T13:55:03.931Z,1.07
2022-11-23T13:57:34.838Z,0.90
2022-11-23T14:00:22.383Z,0.90
2022-11-23T14:02:49.696Z,0.90
2022-11-23T14:05:46.482Z,0.83
2022-11-23T14:08:14.551Z,0.90
2022-11-23T14:10:44.685Z,1.37
2022-11-23T14:13:24.329Z,1.00
2022-11-23T14:15:56.526Z,1.00
2022-11-23T14:18:47.119Z,1.30
2022-11-23T14:21:14.420Z,1.00
2022-11-23T14:23:48.031Z,1.00
2022-11-23T14:26:28.135Z,1.10
2022-11-23T14:29:14.535Z,1.10
2022-11-23T14:32:00.257Z,1.07
2022-11-23T14:34:34.823Z,0.90
2022-11-23T14:37:02.264Z,0.90
2022-11-23T14:39:45.148Z,1.00
2022-11-23T14:42:14.687Z,0.80
2022-11-23T14:44:42.980Z,0.80
2022-11-23T14:47:11.551Z,0.87
2022-11-23T14:49:49.103Z,0.97
2022-11-23T14:52:19.771Z,0.90
2022-11-23T14:54:48.645Z,0.83
2022-11-23T14:57:16.292Z,0.90
2022-11-23T14:59:44.035Z,0.90
2022-11-23T15:02:26.069Z,1.20
2022-11-23T15:04:53.420Z,0.90
2022-11-23T15:07:25.847Z,0.87
2022-11-23T15:10:03.235Z,0.70
2022-11-23T15:12:41.940Z,0.80
2022-11-23T15:15:24.128Z,0.90
2022-11-23T15:17:55.639Z,0.70
2022-11-23T15:20:24.271Z,0.77
2022-11-23T15:22:51.795Z,0.93
2022-11-23T15:25:21.753Z,0.90
2022-11-23T15:27:49.516Z,0.90
2022-11-23T15:30:21.472Z,0.80
2022-11-23T15:32:56.467Z,0.90
2022-11-23T15:35:25.040Z,0.77
2022-11-23T15:37:52.480Z,0.90
2022-11-23T15:40:20.244Z,0.80
2022-11-23T15:42:48.379Z,0.90
2022-11-23T15:45:35.429Z,1.13
2022-11-23T15:48:04.486Z,0.80
2022-11-23T15:50:34.191Z,0.97
2022-11-23T15:53:02.112Z,0.90
2022-11-23T15:55:30.299Z,1.00
2022-11-23T15:57:58.084Z,1.23
2022-11-23T16:00:26.434Z,0.90
2022-11-23T16:02:54.085Z,0.87
2022-11-23T16:05:23.026Z,0.93
2022-11-23T16:07:57.961Z,0.90
2022-11-23T16:10:26.699Z,0.90
2022-11-23T16:12:55.589Z,1.00
2022-11-23T16:15:38.227Z,0.90
2022-11-23T16:18:07.466Z,1.00
2022-11-23T16:20:34.974Z,0.80
2022-11-23T16:23:02.537Z,0.90
2022-11-23T16:25:34.123Z,1.17
2022-11-23T16:28:06.187Z,1.17
2022-11-23T16:30:38.382Z,1.00
2022-11-23T16:33:06.510Z,1.20
2022-11-23T16:35:33.804Z,1.20
2022-11-23T16:38:01.257Z,1.17
2022-11-23T16:40:28.572Z,1.20
2022-11-23T16:42:56.148Z,1.20
2022-11-23T16:45:23.801Z,1.33
2022-11-23T16:47:52.899Z,1.00
2022-11-23T16:50:20.447Z,1.00
2022-11-23T16:52:48.137Z,1.30
2022-11-23T16:55:15.541Z,1.13
2022-11-23T16:57:43.542Z,1.53
2022-11-23T17:00:18.558Z,1.10
2022-11-23T17:02:46.003Z,1.13
2022-11-23T17:05:17.292Z,1.00
2022-11-23T17:07:44.769Z,1.30
2022-11-23T17:10:13.766Z,1.07
2022-11-23T17:12:41.462Z,1.13
2022-11-23T17:15:12.416Z,1.23
2022-11-23T17:17:39.790Z,1.00
2022-11-23T17:20:10.752Z,1.13
2022-11-23T17:22:39.094Z,1.30
2022-11-23T17:25:11.679Z,1.47
2022-11-23T17:27:43.691Z,1.20
2022-11-23T17:30:15.960Z,1.27
2022-11-23T17:32:43.269Z,1.30
2022-11-23T17:35:10.641Z,1.53
2022-11-23T17:37:38.100Z,1.40
2022-11-23T17:40:05.996Z,1.20
2022-11-23T17:42:34.109Z,1.40
2022-11-23T17:45:01.364Z,1.03
2022-11-23T17:47:30.243Z,1.20
2022-11-23T17:49:58.099Z,1.20
2022-11-23T17:52:25.896Z,1.30
2022-11-23T17:54:53.250Z,1.20
2022-11-23T17:57:23.458Z,1.20
2022-11-23T17:59:50.818Z,1.20
2022-11-23T18:02:19.895Z,1.20
2022-11-23T18:04:47.867Z,1.30
2022-11-23T18:07:16.600Z,1.47
2022-11-23T18:09:44.047Z,1.23
2022-11-23T18:12:11.315Z,1.23
2022-11-23T18:14:38.667Z,1.03
2022-11-23T18:17:06.128Z,1.50
2022-11-23T18:19:33.980Z,1.40
2022-11-23T18:22:01.521Z,1.20
2022-11-23T18:24:28.863Z,1.47
2022-11-23T18:26:56.320Z,1.23
2022-11-23T18:29:23.695Z,1.50
2022-11-23T18:31:51.220Z,1.13
2022-11-23T18:34:18.686Z,1.40
2022-11-23T18:36:46.029Z,1.60
2022-11-23T18:39:13.812Z,1.10
2022-11-23T18:41:41.275Z,1.40
2022-11-23T18:44:08.571Z,1.50
2022-11-23T18:46:35.973Z,1.40
2022-11-23T18:49:03.484Z,1.40
2022-11-23T18:51:30.805Z,1.30
2022-11-23T18:53:58.124Z,1.67
2022-11-23T18:56:25.510Z,1.50
2022-11-23T18:58:52.825Z,1.27
2022-11-23T19:01:21.872Z,1.57
2022-11-23T19:03:50.534Z,1.63
2022-11-23T19:06:19.055Z,1.50
2022-11-23T19:08:47.411Z,1.60
2022-11-23T19:11:19.826Z,1.00
2022-11-23T19:13:48.230Z,1.43
2022-11-23T19:16:16.760Z,1.37
2022-11-23T19:18:45.119Z,1.40
2022-11-23T19:21:16.457Z,1.20
2022-11-23T19:23:44.312Z,1.60
2022-11-23T19:26:11.706Z,1.60
2022-11-23T19:28:44.456Z,1.30
2022-11-23T19:31:19.586Z,1.40
2022-11-23T19:33:47.713Z,1.30
2022-11-23T19:36:16.325Z,1.17
2022-11-23T19:38:44.004Z,1.43
2022-11-23T19:41:11.895Z,1.20
2022-11-23T19:43:39.416Z,1.30
2022-11-23T19:46:07.908Z,1.13
2022-11-23T19:48:35.505Z,1.50
2022-11-23T19:51:04.469Z,1.30
2022-11-23T19:53:35.216Z,1.10
2022-11-23T19:56:06.909Z,1.47
2022-11-23T19:58:34.846Z,1.17
2022-11-23T20:01:06.382Z,1.17
2022-11-23T20:03:37.906Z,1.23
2022-11-23T20:06:08.361Z,1.30
2022-11-23T20:08:35.662Z,1.33
2022-11-23T20:11:07.503Z,1.30
2022-11-23T20:13:35.671Z,1.20
2022-11-23T20:16:07.555Z,0.97
2022-11-23T20:18:35.027Z,1.60
2022-11-23T20:21:02.539Z,1.43
2022-11-23T20:23:30.078Z,1.13
2022-11-23T20:25:57.643Z,1.13
2022-11-23T20:28:25.639Z,1.40
2022-11-23T20:30:53.080Z,0.93
2022-11-23T20:33:20.503Z,1.20
2022-11-23T20:35:49.051Z,1.40
2022-11-23T20:38:17.510Z,1.20
2022-11-23T20:40:44.930Z,1.73
2022-11-23T20:43:12.332Z,1.30
2022-11-23T20:45:39.697Z,1.30
2022-11-23T20:48:07.312Z,1.07
2022-11-23T20:50:34.734Z,1.20
2022-11-23T20:53:02.818Z,1.30
2022-11-23T20:55:31.941Z,1.10
2022-11-23T20:57:59.845Z,1.27
2022-11-23T21:00:27.277Z,1.37
2022-11-23T21:02:58.485Z,1.27
2022-11-23T21:05:25.901Z,1.10
2022-11-23T21:07:53.218Z,1.20
2022-11-23T21:10:39.163Z,1.20
2022-11-23T21:13:48.532Z,1.17
2022-11-23T21:16:16.583Z,1.00
2022-11-23T21:18:43.943Z,1.07
2022-11-23T21:21:12.051Z,1.20
2022-11-23T21:23:39.478Z,1.10
2022-11-23T21:26:07.460Z,1.00
2022-11-23T21:28:35.007Z,1.03
2022-11-23T21:31:08.325Z,1.20
2022-11-23T21:33:36.926Z,0.97
2022-11-23T21:36:04.998Z,1.10
2022-11-23T21:38:35.121Z,1.20
2022-11-23T21:41:03.225Z,1.23
2022-11-23T21:43:31.303Z,1.37
2022-11-23T21:45:59.952Z,1.70
2022-11-23T21:48:27.667Z,1.17
2022-11-23T21:51:01.141Z,0.97
2022-11-23T21:53:28.650Z,1.40
2022-11-23T21:55:55.938Z,1.07
2022-11-23T21:58:23.376Z,1.10
2022-11-23T22:00:50.737Z,0.90
2022-11-23T22:03:18.194Z,1.10
2022-11-23T22:05:55.469Z,1.33
2022-11-23T22:08:30.329Z,0.97
2022-11-23T22:10:58.079Z,1.20
2022-11-23T22:13:26.186Z,1.30
2022-11-23T22:15:53.852Z,1.20
2022-11-23T22:18:21.487Z,1.13
2022-11-23T22:20:48.958Z,1.00
2022-11-23T22:23:16.577Z,1.30
2022-11-23T22:25:48.026Z,1.27
2022-11-23T22:28:15.610Z,1.30
2022-11-23T22:30:43.200Z,1.40
2022-11-23T22:33:10.824Z,0.80
2022-11-23T22:35:38.311Z,1.30
2022-11-23T22:38:05.772Z,1.03
2022-11-23T22:40:34.280Z,2.07
2022-11-23T22:43:01.709Z,1.60
2022-11-23T22:45:29.258Z,1.13
2022-11-23T22:47:56.795Z,1.10
2022-11-23T22:50:24.307Z,1.30
2022-11-23T22:52:52.076Z,1.13
2022-11-23T22:55:19.535Z,1.30
2022-11-23T22:57:47.225Z,0.90
2022-11-23T23:00:15.186Z,1.20
2022-11-23T23:02:42.875Z,1.23
2022-11-23T23:05:10.481Z,1.00
2022-11-23T23:07:38.209Z,1.67
2022-11-23T23:10:06.147Z,1.60
2022-11-23T23:12:33.596Z,1.60
2022-11-23T23:15:01.100Z,1.20
2022-11-23T23:17:28.697Z,1.10
2022-11-23T23:19:56.311Z,0.90
2022-11-23T23:22:24.059Z,1.70
2022-11-23T23:24:51.787Z,1.13
2022-11-23T23:27:19.377Z,1.27
2022-11-23T23:29:46.818Z,0.90
2022-11-23T23:32:14.287Z,1.20
2022-11-23T23:34:41.750Z,1.00
2022-11-23T23:37:11.523Z,0.90
2022-11-23T23:39:39.302Z,1.00
2022-11-23T23:42:07.614Z,1.13
2022-11-23T23:44:35.381Z,1.43
2022-11-23T23:47:03.172Z,1.53
2022-11-23T23:49:31.800Z,1.10
2022-11-23T23:51:59.272Z,0.80
2022-11-23T23:54:26.837Z,0.93
2022-11-23T23:56:54.237Z,0.90
2022-11-23T23:59:23.606Z,0.80
